createdAt,value
2023-06-17T00:01:28.169Z,4.80
2023-06-17T00:03:55.002Z,4.20
2023-06-17T00:06:21.844Z,6.25
2023-06-17T00:08:48.512Z,5.20
2023-06-17T00:11:15.235Z,4.50
2023-06-17T00:13:41.916Z,4.93
2023-06-17T00:16:10.363Z,5.07
2023-06-17T00:18:37.280Z,4.85
2023-06-17T00:21:03.987Z,4.30
2023-06-17T00:23:31.332Z,4.80
2023-06-17T00:25:58.447Z,4.68
2023-06-17T00:28:25.100Z,4.47
2023-06-17T00:30:51.767Z,4.78
2023-06-17T00:33:18.408Z,4.47
2023-06-17T00:35:45.104Z,4.35
2023-06-17T00:38:11.839Z,4.20
2023-06-17T00:40:38.576Z,4.95
2023-06-17T00:43:05.241Z,6.07
2023-06-17T00:45:39.731Z,4.78
2023-06-17T00:48:10.260Z,5.00
2023-06-17T00:50:37.843Z,4.85
2023-06-17T00:53:04.864Z,5.65
2023-06-17T00:55:33.774Z,4.75
2023-06-17T00:58:00.614Z,4.50
2023-06-17T01:00:27.339Z,4.60
2023-06-17T01:02:54.136Z,4.38
2023-06-17T01:05:20.818Z,4.60
2023-06-17T01:08:01.186Z,4.85
2023-06-17T01:10:43.091Z,4.18
2023-06-17T01:13:10.736Z,4.40
2023-06-17T01:15:37.569Z,4.72
2023-06-17T01:18:05.488Z,4.60
2023-06-17T01:20:37.468Z,4.65
2023-06-17T01:23:05.128Z,4.93
2023-06-17T01:25:33.026Z,4.88
2023-06-17T01:28:17.106Z,5.50
2023-06-17T01:30:50.184Z,5.03
2023-06-17T01:33:17.088Z,4.82
2023-06-17T01:36:36.424Z,4.20
2023-06-17T01:39:07.027Z,4.22
2023-06-17T01:41:46.763Z,4.40
2023-06-17T01:44:13.486Z,4.50
2023-06-17T01:46:40.644Z,4.40
2023-06-17T01:49:08.046Z,4.60
2023-06-17T01:51:34.791Z,4.50
2023-06-17T01:54:01.469Z,5.15
2023-06-17T01:56:28.513Z,4.45
2023-06-17T01:58:55.340Z,4.38
2023-06-17T02:01:22.301Z,5.07
2023-06-17T02:03:48.989Z,6.68
2023-06-17T02:06:15.828Z,6.13
2023-06-17T02:08:43.255Z,5.55
2023-06-17T02:11:10.025Z,5.88
2023-06-17T02:13:36.670Z,5.82
2023-06-17T02:16:03.810Z,5.35
2023-06-17T02:18:33.679Z,4.70
2023-06-17T02:21:03.488Z,4.70
2023-06-17T02:23:30.700Z,5.47
2023-06-17T02:25:58.497Z,4.65
2023-06-17T02:28:25.617Z,4.47
2023-06-17T02:30:52.324Z,4.53
2023-06-17T02:33:22.385Z,5.53
2023-06-17T02:35:49.569Z,5.00
2023-06-17T02:38:16.317Z,4.53
2023-06-17T02:40:42.979Z,4.95
2023-06-17T02:43:09.701Z,5.97
2023-06-17T02:45:36.429Z,5.45
2023-06-17T02:48:03.759Z,5.05
2023-06-17T02:50:30.505Z,5.55
2023-06-17T02:52:57.564Z,4.60
2023-06-17T02:55:24.431Z,4.50
2023-06-17T02:57:51.120Z,4.85
2023-06-17T03:00:18.521Z,4.75
2023-06-17T03:02:45.622Z,4.63
2023-06-17T03:05:13.967Z,4.97
2023-06-17T03:07:41.512Z,4.80
2023-06-17T03:10:09.206Z,4.88
2023-06-17T03:12:35.988Z,4.55
2023-06-17T03:15:02.709Z,4.57
2023-06-17T03:17:29.568Z,4.10
2023-06-17T03:19:58.348Z,4.55
2023-06-17T03:22:25.026Z,4.70
2023-06-17T03:24:52.208Z,5.00
2023-06-17T03:27:18.949Z,4.45
2023-06-17T03:29:45.684Z,4.57
2023-06-17T03:32:12.456Z,4.35
2023-06-17T03:34:39.141Z,4.25
2023-06-17T03:37:05.972Z,4.30
2023-06-17T03:39:32.640Z,4.30
2023-06-17T03:41:59.346Z,4.50
2023-06-17T03:44:26.181Z,4.30
2023-06-17T03:46:52.808Z,4.55
2023-06-17T03:49:19.498Z,4.35
2023-06-17T03:51:46.882Z,4.00
2023-06-17T03:54:13.581Z,4.53
2023-06-17T03:56:40.658Z,4.88
2023-06-17T03:59:07.275Z,4.40
2023-06-17T04:01:34.412Z,4.18
2023-06-17T04:04:01.219Z,4.22
2023-06-17T04:06:28.070Z,4.18
2023-06-17T04:08:55.331Z,4.50
2023-06-17T04:11:22.140Z,4.03
2023-06-17T04:13:48.841Z,3.97
2023-06-17T04:16:16.470Z,4.38
2023-06-17T04:18:43.288Z,5.30
2023-06-17T04:21:10.703Z,4.43
2023-06-17T04:23:37.411Z,4.32
2023-06-17T04:26:04.625Z,4.45
2023-06-17T04:28:33.478Z,4.60
2023-06-17T04:31:02.359Z,4.50
2023-06-17T04:33:31.908Z,4.25
2023-06-17T04:35:58.876Z,5.20
2023-06-17T04:38:25.896Z,4.45
2023-06-17T04:40:54.238Z,5.10
2023-06-17T04:43:24.314Z,4.63
2023-06-17T04:45:51.643Z,4.20
2023-06-17T04:48:18.324Z,4.30
2023-06-17T04:50:45.009Z,4.90
2023-06-17T04:53:12.936Z,4.95
2023-06-17T04:55:39.712Z,5.93
2023-06-17T04:58:06.590Z,11.43
2023-06-17T05:00:33.244Z,6.22
2023-06-17T05:02:59.975Z,4.72
2023-06-17T05:05:26.773Z,6.43
2023-06-17T05:07:53.424Z,10.52
2023-06-17T05:10:20.315Z,9.18
2023-06-17T05:12:47.267Z,5.10
2023-06-17T05:15:13.952Z,4.57
2023-06-17T05:17:43.363Z,4.72
2023-06-17T05:20:11.609Z,4.80
2023-06-17T05:22:38.545Z,5.45
2023-06-17T05:25:05.782Z,4.40
2023-06-17T05:27:32.451Z,4.28
2023-06-17T05:29:59.218Z,4.20
2023-06-17T05:32:26.555Z,5.05
2023-06-17T05:34:53.447Z,4.93
2023-06-17T05:37:20.127Z,4.53
2023-06-17T05:39:47.031Z,4.97
2023-06-17T05:42:13.726Z,5.00
2023-06-17T05:44:41.224Z,4.72
2023-06-17T05:47:08.092Z,4.88
2023-06-17T05:49:34.813Z,5.32
2023-06-17T05:52:01.563Z,5.10
2023-06-17T05:54:28.283Z,4.65
2023-06-17T05:56:55.014Z,4.55
2023-06-17T05:59:21.938Z,5.07
2023-06-17T06:01:48.888Z,4.97
2023-06-17T06:04:15.797Z,5.15
2023-06-17T06:06:42.624Z,5.18
2023-06-17T06:09:09.394Z,5.30
2023-06-17T06:11:36.398Z,5.10
2023-06-17T06:14:03.268Z,4.97
2023-06-17T06:16:29.991Z,5.72
2023-06-17T06:18:56.734Z,4.55
2023-06-17T06:21:23.401Z,4.47
2023-06-17T06:23:50.551Z,4.95
2023-06-17T06:26:17.300Z,4.30
2023-06-17T06:28:44.169Z,5.10
2023-06-17T06:31:11.957Z,6.20
2023-06-17T06:33:38.768Z,4.80
2023-06-17T06:36:05.531Z,4.65
2023-06-17T06:38:32.190Z,4.28
2023-06-17T06:40:58.903Z,5.10
2023-06-17T06:43:25.692Z,5.20
2023-06-17T06:45:52.567Z,5.70
2023-06-17T06:48:19.259Z,5.53
2023-06-17T06:50:45.947Z,5.43
2023-06-17T06:53:12.730Z,5.45
2023-06-17T06:55:39.402Z,5.90
2023-06-17T06:58:06.076Z,5.82
2023-06-17T07:00:32.838Z,5.60
2023-06-17T07:02:59.587Z,6.03
2023-06-17T07:05:26.492Z,5.25
2023-06-17T07:07:53.183Z,5.70
2023-06-17T07:10:20.297Z,5.38
2023-06-17T07:12:47.330Z,5.55
2023-06-17T07:15:15.286Z,5.45
2023-06-17T07:17:42.333Z,5.47
2023-06-17T07:20:09.812Z,5.90
2023-06-17T07:22:36.567Z,5.53
2023-06-17T07:25:03.925Z,5.68
2023-06-17T07:27:30.601Z,6.15
2023-06-17T07:29:57.301Z,5.80
2023-06-17T07:32:38.938Z,6.05
2023-06-17T07:35:06.386Z,5.53
2023-06-17T07:37:33.047Z,5.13
2023-06-17T07:39:59.678Z,6.45
2023-06-17T07:42:26.344Z,6.63
2023-06-17T07:44:53.295Z,5.97
2023-06-17T07:47:20.119Z,6.40
2023-06-17T07:49:47.100Z,5.80
2023-06-17T07:52:13.796Z,6.22
2023-06-17T07:54:40.610Z,5.95
2023-06-17T07:57:07.329Z,5.80
2023-06-17T07:59:34.131Z,5.45
2023-06-17T08:02:00.887Z,5.97
2023-06-17T08:04:27.662Z,5.40
2023-06-17T08:06:54.340Z,5.80
2023-06-17T08:09:21.196Z,5.72
2023-06-17T08:11:49.165Z,5.28
2023-06-17T08:14:16.670Z,6.90
2023-06-17T08:16:44.228Z,6.00
2023-06-17T08:19:11.124Z,5.38
2023-06-17T08:21:38.445Z,6.32
2023-06-17T08:24:25.861Z,4.95
2023-06-17T08:26:53.416Z,5.40
2023-06-17T08:29:20.184Z,5.00
2023-06-17T08:31:52.223Z,5.10
2023-06-17T08:34:19.854Z,4.80
2023-06-17T08:36:50.828Z,5.75
2023-06-17T08:39:17.613Z,5.35
2023-06-17T08:41:44.425Z,5.00
2023-06-17T08:44:12.873Z,5.22
2023-06-17T08:46:40.344Z,5.88
2023-06-17T08:49:10.271Z,5.30
2023-06-17T08:51:37.034Z,5.03
2023-06-17T08:54:04.030Z,4.65
2023-06-17T08:56:30.747Z,5.28
2023-06-17T08:58:57.832Z,4.88
2023-06-17T09:01:24.925Z,4.90
2023-06-17T09:03:52.414Z,4.90
2023-06-17T09:06:22.764Z,5.28
2023-06-17T09:08:49.617Z,4.63
2023-06-17T09:11:16.313Z,3.75
2023-06-17T09:13:43.133Z,4.57
2023-06-17T09:16:09.921Z,5.00
2023-06-17T09:18:36.700Z,4.63
2023-06-17T09:21:03.920Z,4.30
2023-06-17T09:23:30.656Z,4.63
2023-06-17T09:26:04.311Z,4.93
2023-06-17T09:28:32.139Z,4.37
2023-06-17T09:31:00.761Z,4.80
2023-06-17T09:33:28.169Z,4.93
2023-06-17T09:36:02.154Z,4.65
2023-06-17T09:38:34.594Z,9.65
2023-06-17T09:41:01.387Z,4.57
2023-06-17T09:43:29.015Z,5.00
2023-06-17T09:46:02.866Z,4.60
2023-06-17T09:48:33.206Z,4.72
2023-06-17T09:51:00.241Z,3.42
2023-06-17T09:53:31.365Z,3.40
2023-06-17T09:56:00.190Z,3.28
2023-06-17T09:58:34.146Z,3.50
2023-06-17T10:01:02.266Z,3.40
2023-06-17T10:03:29.411Z,2.70
2023-06-17T10:06:00.916Z,3.30
2023-06-17T10:08:27.750Z,3.03
2023-06-17T10:10:54.426Z,2.65
2023-06-17T10:13:21.734Z,2.35
2023-06-17T10:15:48.656Z,2.50
2023-06-17T10:18:15.319Z,3.03
2023-06-17T10:20:42.080Z,3.60
2023-06-17T10:23:08.940Z,2.97
2023-06-17T10:25:36.978Z,3.50
2023-06-17T10:28:06.528Z,3.47
2023-06-17T10:30:35.527Z,3.15
2023-06-17T10:33:03.397Z,2.80
2023-06-17T10:35:55.069Z,2.72
2023-06-17T10:38:29.622Z,2.50
2023-06-17T10:43:25.081Z,2.88
2023-06-17T10:45:58.365Z,2.72
2023-06-17T10:48:32.365Z,3.10
2023-06-17T10:51:03.557Z,3.65
2023-06-17T10:53:32.942Z,2.42
2023-06-17T10:56:00.794Z,2.88
2023-06-17T10:58:35.784Z,2.50
2023-06-17T11:01:06.746Z,2.90
2023-06-17T11:03:33.926Z,2.60
2023-06-17T11:06:05.058Z,2.50
2023-06-17T11:08:33.009Z,2.70
2023-06-17T11:11:09.717Z,2.42
2023-06-17T11:13:40.332Z,2.45
2023-06-17T11:16:10.641Z,2.65
2023-06-17T11:18:38.283Z,2.58
2023-06-17T11:21:05.316Z,2.40
2023-06-17T11:24:08.118Z,2.67
2023-06-17T11:26:35.369Z,2.90
2023-06-17T11:29:05.285Z,2.65
2023-06-17T11:31:39.520Z,2.22
2023-06-17T11:34:07.669Z,2.15
2023-06-17T11:36:37.341Z,2.40
2023-06-17T11:39:04.110Z,2.20
2023-06-17T11:41:30.893Z,2.10
2023-06-17T11:43:57.582Z,2.20
2023-06-17T11:46:24.958Z,2.20
2023-06-17T11:48:52.023Z,2.05
2023-06-17T11:51:19.276Z,2.00
2023-06-17T11:53:48.645Z,2.10
2023-06-17T11:56:21.415Z,2.20
2023-06-17T11:58:48.535Z,2.42
2023-06-17T12:01:15.266Z,2.60
2023-06-17T12:03:48.256Z,2.50
2023-06-17T12:06:21.724Z,2.13
2023-06-17T12:09:04.120Z,2.50
2023-06-17T12:11:36.922Z,2.60
2023-06-17T12:14:12.133Z,2.35
2023-06-17T12:16:41.030Z,2.25
2023-06-17T12:19:10.686Z,2.75
2023-06-17T12:21:40.264Z,2.58
2023-06-17T12:24:07.044Z,3.17
2023-06-17T12:26:33.757Z,2.83
2023-06-17T12:29:03.072Z,3.00
2023-06-17T12:31:35.770Z,3.22
2023-06-17T12:34:03.418Z,3.03
2023-06-17T12:36:30.074Z,3.25
2023-06-17T12:38:57.801Z,2.88
2023-06-17T12:41:24.491Z,3.72
2023-06-17T12:43:51.749Z,3.50
2023-06-17T12:46:18.596Z,2.83
2023-06-17T12:48:45.344Z,3.50
2023-06-17T12:51:13.017Z,3.40
2023-06-17T12:53:41.495Z,3.47
2023-06-17T12:56:08.232Z,2.88
2023-06-17T12:58:34.918Z,3.78
2023-06-17T13:01:02.487Z,3.63
2023-06-17T13:03:29.279Z,3.60
2023-06-17T13:05:55.970Z,3.97
2023-06-17T13:08:22.694Z,4.13
2023-06-17T13:10:49.428Z,3.83
2023-06-17T13:13:16.136Z,3.50
2023-06-17T13:15:43.142Z,3.60
2023-06-17T13:18:10.077Z,3.40
2023-06-17T13:20:36.900Z,4.05
2023-06-17T13:23:03.787Z,5.55
2023-06-17T13:25:30.496Z,4.55
2023-06-17T13:27:57.506Z,3.78
2023-06-17T13:30:24.589Z,4.18
2023-06-17T13:32:51.752Z,6.95
2023-06-17T13:35:18.934Z,5.40
2023-06-17T13:37:46.593Z,3.85
2023-06-17T13:40:13.406Z,4.00
2023-06-17T13:42:40.142Z,4.28
2023-06-17T13:45:08.226Z,3.45
2023-06-17T13:47:35.128Z,3.22
2023-06-17T13:50:01.855Z,3.90
2023-06-17T13:52:28.683Z,3.90
2023-06-17T13:54:55.525Z,2.88
2023-06-17T13:57:23.204Z,2.90
2023-06-17T13:59:50.536Z,2.70
2023-06-17T14:02:17.328Z,2.63
2023-06-17T14:04:44.545Z,2.40
2023-06-17T14:07:11.322Z,2.70
2023-06-17T14:09:38.007Z,2.90
2023-06-17T14:12:06.409Z,2.83
2023-06-17T14:14:36.613Z,2.58
2023-06-17T14:17:05.579Z,2.75
2023-06-17T14:19:34.352Z,2.70
2023-06-17T14:22:01.739Z,2.40
2023-06-17T14:24:31.062Z,2.45
2023-06-17T14:27:30.182Z,2.47
2023-06-17T14:29:56.862Z,2.00
2023-06-17T14:32:23.651Z,2.13
2023-06-17T14:34:50.834Z,2.33
2023-06-17T14:37:18.326Z,4.47
2023-06-17T14:39:45.067Z,3.17
2023-06-17T14:42:13.059Z,2.63
2023-06-17T14:44:40.831Z,2.83
2023-06-17T14:47:08.068Z,2.60
2023-06-17T14:49:35.055Z,3.53
2023-06-17T14:52:01.909Z,3.00
2023-06-17T14:54:28.928Z,2.90
2023-06-17T14:56:56.507Z,2.42
2023-06-17T14:59:23.521Z,2.45
2023-06-17T15:01:50.250Z,2.42
2023-06-17T15:04:16.987Z,2.72
2023-06-17T15:06:43.909Z,2.35
2023-06-17T15:09:27.042Z,2.53
2023-06-17T15:11:54.999Z,2.97
2023-06-17T15:14:21.763Z,3.28
2023-06-17T15:16:48.713Z,3.17
2023-06-17T15:19:16.701Z,2.67
2023-06-17T15:21:43.729Z,3.00
2023-06-17T15:24:11.550Z,2.97
2023-06-17T15:26:38.306Z,3.08
2023-06-17T15:29:06.085Z,2.60
2023-06-17T15:31:33.578Z,3.10
2023-06-17T15:34:00.647Z,4.30
2023-06-17T15:36:27.925Z,2.78
2023-06-17T15:38:54.966Z,2.90
2023-06-17T15:41:21.756Z,2.92
2023-06-17T15:43:48.438Z,2.72
2023-06-17T15:46:15.115Z,3.00
2023-06-17T15:48:41.900Z,3.05
2023-06-17T15:51:08.569Z,3.10
2023-06-17T15:53:35.383Z,3.35
2023-06-17T15:56:02.306Z,3.20
2023-06-17T15:58:29.034Z,3.00
2023-06-17T16:00:55.728Z,2.85
2023-06-17T16:03:24.535Z,3.10
2023-06-17T16:05:51.249Z,3.45
2023-06-17T16:08:18.017Z,2.80
2023-06-17T16:10:44.775Z,3.50
2023-06-17T16:13:11.477Z,3.17
2023-06-17T16:15:38.244Z,2.92
2023-06-17T16:18:04.994Z,3.60
2023-06-17T16:20:31.746Z,3.30
2023-06-17T16:22:58.838Z,3.58
2023-06-17T16:25:49.890Z,3.30
2023-06-17T16:28:21.424Z,3.15
2023-06-17T16:30:48.218Z,3.50
2023-06-17T16:33:15.354Z,3.67
2023-06-17T16:35:42.152Z,4.55
2023-06-17T16:38:10.134Z,4.80
2023-06-17T16:40:36.867Z,4.68
2023-06-17T16:43:03.555Z,4.53
2023-06-17T16:45:30.244Z,4.30
2023-06-17T16:47:57.262Z,3.40
2023-06-17T16:50:24.525Z,3.92
2023-06-17T16:52:51.486Z,4.43
2023-06-17T16:55:18.231Z,4.25
2023-06-17T16:57:44.913Z,3.92
2023-06-17T17:00:12.867Z,4.40
2023-06-17T17:02:39.889Z,3.72
2023-06-17T17:05:07.235Z,3.30
2023-06-17T17:07:35.483Z,3.25
2023-06-17T17:10:02.529Z,3.38
2023-06-17T17:12:29.229Z,3.30
2023-06-17T17:14:56.699Z,3.95
2023-06-17T17:17:23.477Z,3.88
2023-06-17T17:19:50.598Z,3.50
2023-06-17T17:22:17.354Z,3.80
2023-06-17T17:24:44.605Z,3.53
2023-06-17T17:27:11.703Z,3.63
2023-06-17T17:29:38.409Z,3.78
2023-06-17T17:32:05.721Z,3.17
2023-06-17T17:34:32.636Z,3.10
2023-06-17T17:36:59.506Z,3.60
2023-06-17T17:39:26.526Z,3.20
2023-06-17T17:41:53.237Z,3.22
2023-06-17T17:44:20.068Z,2.60
2023-06-17T17:46:46.962Z,3.55
2023-06-17T17:49:13.695Z,3.47
2023-06-17T17:51:40.386Z,3.42
2023-06-17T17:54:07.164Z,3.40
2023-06-17T17:56:33.882Z,3.05
2023-06-17T17:59:01.120Z,3.38
2023-06-17T18:01:27.843Z,3.03
2023-06-17T18:03:54.628Z,2.90
2023-06-17T18:06:21.570Z,2.85
2023-06-17T18:08:48.215Z,2.67
2023-06-17T18:11:14.910Z,3.08
2023-06-17T18:13:41.697Z,2.78
2023-06-17T18:16:08.410Z,2.85
2023-06-17T18:18:35.326Z,3.13
2023-06-17T18:21:01.981Z,3.10
2023-06-17T18:23:28.676Z,3.83
2023-06-17T18:25:56.987Z,2.83
2023-06-17T18:28:23.685Z,3.42
2023-06-17T18:30:50.477Z,4.40
2023-06-17T18:33:17.340Z,3.00
2023-06-17T18:35:44.162Z,3.20
2023-06-17T18:38:10.820Z,3.85
2023-06-17T18:40:37.548Z,4.15
2023-06-17T18:43:04.295Z,3.50
2023-06-17T18:45:31.003Z,3.65
2023-06-17T18:47:57.816Z,3.42
2023-06-17T18:50:25.114Z,3.90
2023-06-17T18:52:52.100Z,3.42
2023-06-17T18:55:18.792Z,3.70
2023-06-17T18:57:45.596Z,3.88
2023-06-17T19:00:12.585Z,3.85
2023-06-17T19:02:39.385Z,3.75
2023-06-17T19:05:07.126Z,3.13
2023-06-17T19:07:33.985Z,3.50
2023-06-17T19:10:00.975Z,3.47
2023-06-17T19:12:31.156Z,3.83
2023-06-17T19:14:58.852Z,4.68
2023-06-17T19:17:26.737Z,4.47
2023-06-17T19:19:53.716Z,3.22
2023-06-17T19:22:20.462Z,3.20
2023-06-17T19:24:47.227Z,2.90
2023-06-17T19:27:14.041Z,2.92
2023-06-17T19:29:41.016Z,4.28
2023-06-17T19:32:07.842Z,4.68
2023-06-17T19:34:34.588Z,3.45
2023-06-17T19:37:01.461Z,4.80
2023-06-17T19:39:28.193Z,4.40
2023-06-17T19:41:54.890Z,4.07
2023-06-17T19:44:21.770Z,5.13
2023-06-17T19:46:48.828Z,6.22
2023-06-17T19:49:15.969Z,5.22
2023-06-17T19:51:42.959Z,5.45
2023-06-17T19:54:09.650Z,5.75
2023-06-17T19:56:36.693Z,4.95
2023-06-17T19:59:03.574Z,5.88
2023-06-17T20:01:30.546Z,4.47
2023-06-17T20:03:57.372Z,4.15
2023-06-17T20:06:26.497Z,4.45
2023-06-17T20:08:53.830Z,5.38
2023-06-17T20:11:25.600Z,5.20
2023-06-17T20:13:52.849Z,5.63
2023-06-17T20:16:19.596Z,5.43
2023-06-17T20:18:46.406Z,4.28
2023-06-17T20:21:13.213Z,4.80
2023-06-17T20:23:41.210Z,6.75
2023-06-17T20:26:08.262Z,5.03
2023-06-17T20:28:35.263Z,5.40
2023-06-17T20:31:02.125Z,4.70
2023-06-17T20:33:28.770Z,5.45
2023-06-17T20:35:55.513Z,6.03
2023-06-17T20:38:22.636Z,5.10
2023-06-17T20:40:50.073Z,5.57
2023-06-17T20:43:16.969Z,4.95
2023-06-17T20:45:43.963Z,4.10
2023-06-17T20:48:10.781Z,5.05
2023-06-17T20:50:37.951Z,4.55
2023-06-17T20:53:04.679Z,4.72
2023-06-17T20:55:31.778Z,4.70
2023-06-17T20:57:58.649Z,4.80
2023-06-17T21:00:25.775Z,4.20
2023-06-17T21:02:52.552Z,4.28
2023-06-17T21:05:21.503Z,4.70
2023-06-17T21:07:48.339Z,4.90
2023-06-17T21:10:15.297Z,5.15
2023-06-17T21:12:42.326Z,5.63
2023-06-17T21:15:09.657Z,4.80
2023-06-17T21:17:36.423Z,4.53
2023-06-17T21:20:03.817Z,6.05
2023-06-17T21:22:30.558Z,4.88
2023-06-17T21:24:57.445Z,5.60
2023-06-17T21:27:24.465Z,5.13
2023-06-17T21:29:51.139Z,4.90
2023-06-17T21:32:17.793Z,5.00
2023-06-17T21:34:44.563Z,4.80
2023-06-17T21:37:11.308Z,4.70
2023-06-17T21:39:38.382Z,4.82
2023-06-17T21:42:05.479Z,4.75
2023-06-17T21:44:34.186Z,4.57
2023-06-17T21:47:01.282Z,5.05
2023-06-17T21:49:28.038Z,5.57
2023-06-17T21:51:55.373Z,5.10
2023-06-17T21:54:22.298Z,5.68
2023-06-17T21:56:49.003Z,5.53
2023-06-17T21:59:15.765Z,6.20
2023-06-17T22:01:42.562Z,6.00
2023-06-17T22:04:09.348Z,7.18
2023-06-17T22:06:36.202Z,8.68
2023-06-17T22:09:03.010Z,7.80
2023-06-17T22:11:30.280Z,7.32
2023-06-17T22:13:57.039Z,6.10
2023-06-17T22:16:24.346Z,5.32
2023-06-17T22:18:51.712Z,5.78
2023-06-17T22:21:18.473Z,4.82
2023-06-17T22:23:45.214Z,5.50
2023-06-17T22:26:11.942Z,6.88
2023-06-17T22:28:52.720Z,6.38
2023-06-17T22:31:19.396Z,6.72
2023-06-17T22:33:46.480Z,7.32
2023-06-17T22:36:13.375Z,5.57
2023-06-17T22:38:40.089Z,5.05
2023-06-17T22:41:06.780Z,5.28
2023-06-17T22:43:33.566Z,5.40
2023-06-17T22:46:00.258Z,5.28
2023-06-17T22:48:27.260Z,5.70
2023-06-17T22:50:54.075Z,5.72
2023-06-17T22:53:23.241Z,5.03
2023-06-17T22:55:49.914Z,5.65
2023-06-17T22:58:16.636Z,6.68
2023-06-17T23:00:43.422Z,6.13
2023-06-17T23:03:10.199Z,5.45
2023-06-17T23:05:37.050Z,5.53
2023-06-17T23:08:04.619Z,5.40
2023-06-17T23:10:31.458Z,5.93
2023-06-17T23:12:58.434Z,5.65
2023-06-17T23:15:25.951Z,5.07
2023-06-17T23:17:52.687Z,5.95
2023-06-17T23:20:20.092Z,5.53
2023-06-17T23:22:46.995Z,5.32
2023-06-17T23:25:17.158Z,5.47
2023-06-17T23:27:44.602Z,4.93
2023-06-17T23:30:12.916Z,7.15
2023-06-17T23:32:40.771Z,5.38
2023-06-17T23:35:07.665Z,5.20
2023-06-17T23:37:34.319Z,6.22
2023-06-17T23:40:00.957Z,5.82
2023-06-17T23:42:27.647Z,5.70
2023-06-17T23:44:54.319Z,4.75
2023-06-17T23:47:21.458Z,5.63
2023-06-17T23:49:48.853Z,6.45
2023-06-17T23:52:15.714Z,5.53
2023-06-17T23:54:42.524Z,5.40
2023-06-17T23:57:09.301Z,5.63
